Date,TemperatureHighF,TemperatureAvgF,TemperatureLowF,DewpointHighF,DewpointAvgF,DewpointLowF,HumidityHigh,HumidityAvg,HumidityLow,PressureMaxIn,PressureMinIn,WindSpeedMaxMPH,WindSpeedAvgMPH,GustSpeedMaxMPH,PrecipitationSumIn
2013-3-1,64.0,57.0,54.5,44.0,37.0,-99.9,62,50,37,29.74,29.67,8,-20,0,0.00
2013-3-2,61.9,52.3,39.7,41.8,35.1,28.8,84,53,33,29.79,29.69,15,7,0,0.00
2013-3-3,57.2,47.3,39.2,37.1,33.0,29.7,90,60,42,29.92,29.73,13,7,0,0.00
2013-3-4,61.9,48.9,29.8,45.5,34.1,22.3,98,61,23,30.00,29.89,15,5,0,0.00
2013-3-5,71.8,49.2,38.3,58.0,45.2,38.0,99,87,62,29.95,29.81,5,2,0,0.00
2013-3-8,67.6,65.0,61.0,51.3,47.4,44.5,70,54,44,29.97,29.89,10,7,0,0.00
2013-3-9,73.8,62.9,47.8,55.3,51.8,46.9,97,69,48,29.99,29.88,12,5,0,0.00
2013-3-10,77.0,69.4,62.4,59.8,57.2,53.4,82,66,50,29.94,29.86,13,6,0,0.00
2013-3-11,77.0,68.1,54.5,64.2,59.7,53.9,99,76,52,29.89,29.71,16,6,0,0.00
2013-3-12,75.9,68.4,60.8,70.7,64.7,58.5,98,88,80,29.77,29.64,13,5,0,0.18
2013-3-13,71.6,60.4,51.1,58.4,51.2,44.9,99,74,42,29.91,29.76,15,6,0,0.00
2013-3-14,64.2,55.7,46.9,49.1,43.0,35.5,92,63,46,30.00,29.89,18,8,0,0.00
2013-3-15,69.4,55.9,41.4,45.3,42.5,39.1,97,64,35,30.04,29.93,11,4,0,0.00
2013-3-16,78.4,59.8,41.0,56.2,48.8,40.7,99,72,31,29.96,29.83,14,5,0,0.00
2013-3-17,72.1,64.0,46.9,58.4,54.1,46.7,99,73,54,29.92,29.78,11,6,0,0.00
2013-3-18,80.4,72.3,66.2,66.4,61.4,58.4,93,70,59,29.84,29.67,12,8,0,0.00
2013-3-19,81.3,70.4,61.3,68.5,65.4,61.1,99,86,61,29.77,29.66,11,4,0,0.00
2013-3-20,80.4,71.6,63.1,71.0,65.5,57.9,99,82,59,29.73,29.55,12,4,0,0.00
2013-3-21,69.6,60.0,46.0,57.7,46.1,33.1,98,66,28,29.72,29.59,14,5,0,0.00
2013-3-22,77.9,57.0,42.1,56.0,48.2,41.8,99,77,43,29.79,29.66,13,4,0,0.00